createdAt,value
2023-05-15T00:03:13.067Z,55.15
2023-05-15T00:08:17.086Z,55.49
2023-05-15T00:13:22.082Z,55.81
2023-05-15T00:18:26.247Z,55.29
2023-05-15T00:23:30.520Z,54.82
2023-05-15T00:28:34.439Z,54.80
2023-05-15T00:33:38.554Z,54.85
2023-05-15T00:38:42.482Z,55.11
2023-05-15T00:43:47.644Z,54.44
2023-05-15T00:48:52.465Z,53.80
2023-05-15T00:53:57.405Z,54.12
2023-05-15T00:59:07.515Z,53.98
2023-05-15T01:04:12.220Z,52.94
2023-05-15T01:09:17.063Z,52.50
2023-05-15T01:14:21.044Z,51.88
2023-05-15T01:19:25.201Z,51.73
2023-05-15T01:24:54.241Z,51.97
2023-05-15T01:30:21.566Z,51.86
2023-05-15T01:35:35.517Z,51.55
2023-05-15T01:40:40.227Z,51.61
2023-05-15T01:45:46.803Z,52.03
2023-05-15T01:50:55.563Z,52.17
2023-05-15T01:56:00.964Z,52.11
2023-05-15T02:01:06.746Z,52.46
2023-05-15T02:06:13.376Z,52.62
2023-05-15T02:11:17.495Z,52.83
2023-05-15T02:16:23.045Z,52.80
2023-05-15T02:21:27.237Z,52.88
2023-05-15T02:27:03.814Z,52.18
2023-05-15T02:32:49.030Z,51.18
2023-05-15T02:37:57.674Z,50.98
2023-05-15T02:43:03.654Z,50.06
2023-05-15T02:48:09.828Z,50.17
2023-05-15T02:53:15.229Z,49.96
2023-05-15T02:58:19.564Z,49.21
2023-05-15T03:03:23.546Z,49.31
2023-05-15T03:08:27.856Z,50.94
2023-05-15T03:13:31.757Z,49.92
2023-05-15T03:18:35.849Z,49.61
2023-05-15T03:23:39.887Z,50.05
2023-05-15T03:28:45.631Z,49.71
2023-05-15T03:33:50.880Z,49.61
2023-05-15T03:38:54.858Z,48.78
2023-05-15T03:43:58.871Z,48.13
2023-05-15T03:49:02.883Z,47.19
2023-05-15T03:54:07.679Z,46.41
2023-05-15T03:59:11.833Z,46.19
2023-05-15T04:04:16.138Z,45.84
2023-05-15T04:09:20.325Z,45.94
2023-05-15T04:14:24.175Z,45.08
2023-05-15T04:19:28.181Z,45.39
2023-05-15T04:24:32.213Z,45.68
2023-05-15T04:29:36.244Z,44.73
2023-05-15T04:34:41.648Z,45.14
2023-05-15T04:39:45.529Z,43.54
2023-05-15T04:44:49.635Z,43.33
2023-05-15T04:49:53.785Z,42.04
2023-05-15T04:54:57.847Z,41.60
2023-05-15T05:00:02.224Z,41.19
2023-05-15T05:05:09.178Z,41.55
2023-05-15T05:10:14.020Z,41.10
2023-05-15T05:15:18.226Z,40.99
2023-05-15T05:20:22.102Z,40.80
2023-05-15T05:25:26.562Z,39.99
2023-05-15T05:30:30.702Z,39.76
2023-05-15T05:35:34.460Z,39.40
2023-05-15T05:40:39.259Z,39.26
2023-05-15T05:45:43.266Z,39.15
2023-05-15T05:50:47.425Z,39.43
2023-05-15T05:55:51.402Z,39.36
2023-05-15T06:00:55.731Z,39.09
2023-05-15T06:06:00.158Z,38.07
2023-05-15T06:11:04.322Z,37.59
2023-05-15T06:16:08.458Z,38.62
2023-05-15T06:21:12.385Z,38.25
2023-05-15T06:26:16.475Z,38.17
2023-05-15T06:31:20.690Z,38.12
2023-05-15T06:36:24.715Z,37.90
2023-05-15T06:41:28.803Z,37.60
2023-05-15T06:46:32.716Z,37.33
2023-05-15T06:51:36.838Z,36.88
2023-05-15T06:56:40.963Z,37.03
2023-05-15T07:01:45.136Z,36.07
2023-05-15T07:06:49.262Z,35.20
2023-05-15T07:11:53.193Z,35.76
2023-05-15T07:16:57.451Z,35.50
2023-05-15T07:22:03.197Z,34.44
2023-05-15T07:27:07.810Z,36.26
2023-05-15T07:32:11.855Z,37.19
2023-05-15T07:37:16.979Z,38.43
2023-05-15T07:42:22.358Z,38.37
2023-05-15T07:47:26.228Z,38.46
2023-05-15T07:52:30.495Z,38.69
2023-05-15T07:57:34.333Z,38.75
2023-05-15T08:02:38.772Z,38.29
2023-05-15T08:07:42.749Z,36.96
2023-05-15T08:12:48.218Z,37.53
2023-05-15T08:17:52.200Z,36.81
2023-05-15T08:22:56.411Z,37.14
2023-05-15T08:28:00.566Z,36.77
2023-05-15T08:33:04.786Z,35.72
2023-05-15T08:38:09.047Z,35.98
2023-05-15T08:43:19.398Z,36.34
2023-05-15T08:48:29.091Z,36.41
2023-05-15T08:53:33.238Z,36.50
2023-05-15T08:58:37.394Z,36.89
2023-05-15T09:03:42.200Z,37.02
2023-05-15T09:08:47.280Z,36.91
2023-05-15T09:13:51.432Z,37.25
2023-05-15T09:18:55.387Z,36.98
2023-05-15T09:24:38.942Z,37.14
2023-05-15T09:29:43.039Z,37.19
2023-05-15T09:34:47.476Z,36.98
2023-05-15T09:39:51.456Z,37.54
2023-05-15T09:44:55.330Z,37.99
2023-05-15T09:49:59.496Z,37.46
2023-05-15T09:55:03.532Z,37.06
2023-05-15T10:00:12.802Z,37.20
2023-05-15T10:05:17.613Z,37.09
2023-05-15T10:10:22.152Z,36.32
2023-05-15T10:22:07.985Z,36.93
2023-05-15T10:27:13.155Z,36.98
2023-05-15T10:32:18.246Z,36.63
2023-05-15T10:37:24.022Z,36.88
2023-05-15T10:42:30.503Z,36.73
2023-05-15T10:47:35.279Z,37.19
2023-05-15T10:52:40.261Z,37.41
2023-05-15T10:57:48.277Z,37.29
2023-05-15T11:02:57.517Z,37.38
2023-05-15T11:08:19.108Z,37.21
2023-05-15T11:13:23.102Z,37.46
2023-05-15T11:18:27.222Z,37.46
2023-05-15T11:23:40.984Z,37.54
2023-05-15T11:28:45.319Z,37.68
2023-05-15T11:33:52.528Z,37.33
2023-05-15T11:38:57.278Z,37.10
2023-05-15T11:44:02.479Z,37.03
2023-05-15T11:49:06.799Z,37.29
2023-05-15T11:54:14.002Z,37.68
2023-05-15T11:59:17.876Z,38.30
2023-05-15T12:04:22.144Z,38.37
2023-05-15T12:09:28.539Z,38.69
2023-05-15T12:14:34.318Z,38.86
2023-05-15T12:19:40.044Z,38.72
2023-05-15T12:24:43.942Z,38.86
2023-05-15T12:29:48.218Z,38.88
2023-05-15T12:34:52.366Z,38.95
2023-05-15T12:40:05.760Z,39.15
2023-05-15T12:45:17.800Z,39.52
2023-05-15T12:50:24.035Z,39.51
2023-05-15T12:55:33.340Z,40.01
2023-05-15T13:00:40.245Z,40.54
2023-05-15T13:05:46.058Z,40.32
2023-05-15T13:11:01.669Z,40.64
2023-05-15T13:16:07.479Z,41.03
2023-05-15T13:21:12.703Z,41.60
2023-05-15T13:26:16.651Z,41.85
2023-05-15T13:31:20.906Z,42.27
2023-05-15T13:36:24.882Z,42.43
2023-05-15T13:41:29.160Z,42.61
2023-05-15T13:46:33.161Z,42.75
2023-05-15T13:51:37.386Z,43.52
2023-05-15T13:56:41.523Z,43.70
2023-05-15T14:01:46.370Z,43.94
2023-05-15T14:06:50.443Z,44.29
2023-05-15T14:11:54.356Z,44.56
2023-05-15T14:16:58.470Z,45.00
2023-05-15T14:22:02.463Z,45.66
2023-05-15T14:27:06.847Z,45.62
2023-05-15T14:32:11.057Z,46.13
2023-05-15T14:37:15.292Z,46.76
2023-05-15T14:42:21.678Z,46.95
2023-05-15T14:47:28.663Z,47.60
2023-05-15T14:52:32.791Z,48.24
2023-05-15T14:57:36.874Z,48.59
2023-05-15T15:02:41.147Z,48.89
2023-05-15T15:08:07.584Z,49.38
2023-05-15T15:13:14.356Z,49.23
2023-05-15T15:18:18.801Z,49.54
2023-05-15T15:23:23.553Z,49.50
2023-05-15T15:28:30.027Z,50.10
2023-05-15T15:33:33.978Z,49.83
2023-05-15T15:38:38.146Z,50.46
2023-05-15T15:43:42.347Z,50.64
2023-05-15T15:48:46.264Z,51.27
2023-05-15T15:53:50.360Z,51.11
2023-05-15T15:58:54.280Z,51.16
2023-05-15T16:03:58.560Z,52.34
2023-05-15T16:09:02.840Z,52.48
2023-05-15T16:14:06.822Z,53.25
2023-05-15T16:19:10.960Z,53.05
2023-05-15T16:24:15.183Z,53.77
2023-05-15T16:29:19.751Z,53.65
2023-05-15T16:34:23.767Z,54.16
2023-05-15T16:39:27.857Z,54.85
2023-05-15T16:44:33.188Z,54.71
2023-05-15T16:49:37.192Z,54.99
2023-05-15T16:54:42.678Z,54.52
2023-05-15T16:59:46.652Z,54.88
2023-05-15T17:04:50.623Z,55.72
2023-05-15T17:09:55.605Z,56.03
2023-05-15T17:14:59.658Z,56.15
2023-05-15T17:20:04.643Z,56.46
2023-05-15T17:25:09.763Z,56.05
2023-05-15T17:30:13.980Z,56.87
2023-05-15T17:35:18.266Z,56.78
2023-05-15T17:40:22.303Z,57.06
2023-05-15T17:45:27.635Z,57.61
2023-05-15T17:50:32.044Z,57.56
2023-05-15T17:55:36.304Z,57.89
2023-05-15T18:00:40.329Z,57.83
2023-05-15T18:05:47.589Z,58.10
2023-05-15T18:10:51.607Z,58.22
2023-05-15T18:15:55.708Z,58.50
2023-05-15T18:20:59.892Z,58.70
2023-05-15T18:26:03.811Z,58.94
2023-05-15T18:31:08.953Z,59.19
2023-05-15T18:36:13.040Z,59.28
2023-05-15T18:41:17.014Z,59.34
2023-05-15T18:46:21.278Z,59.60
2023-05-15T18:51:25.151Z,59.91
2023-05-15T18:56:29.346Z,59.93
2023-05-15T19:01:33.338Z,60.39
2023-05-15T19:06:37.507Z,59.96
2023-05-15T19:11:42.043Z,59.96
2023-05-15T19:16:46.879Z,60.54
2023-05-15T19:21:52.844Z,60.72
2023-05-15T19:26:56.799Z,61.07
2023-05-15T19:32:02.168Z,61.39
2023-05-15T19:37:06.526Z,61.21
2023-05-15T19:42:10.654Z,61.52
2023-05-15T19:47:14.768Z,61.65
2023-05-15T19:52:20.598Z,62.00
2023-05-15T19:57:24.468Z,62.18
2023-05-15T20:02:28.518Z,62.31
2023-05-15T20:07:32.675Z,62.79
2023-05-15T20:12:36.911Z,62.85
2023-05-15T20:17:42.386Z,63.35
2023-05-15T20:22:46.489Z,63.80
2023-05-15T20:27:50.529Z,63.02
2023-05-15T20:32:54.739Z,63.32
2023-05-15T20:37:59.186Z,63.96
2023-05-15T20:43:03.066Z,63.79
2023-05-15T20:48:09.294Z,64.14
2023-05-15T20:53:13.951Z,64.09
2023-05-15T20:58:18.000Z,64.24
2023-05-15T21:03:21.961Z,64.64
2023-05-15T21:08:26.048Z,64.89
2023-05-15T21:13:30.103Z,64.94
2023-05-15T21:18:34.270Z,64.72
2023-05-15T21:23:38.530Z,65.23
2023-05-15T21:28:42.590Z,65.16
2023-05-15T21:33:46.796Z,65.45
2023-05-15T21:38:50.811Z,65.93
2023-05-15T21:43:54.789Z,65.90
2023-05-15T21:49:00.087Z,65.86
2023-05-15T21:54:04.926Z,66.05
2023-05-15T21:59:09.091Z,66.37
2023-05-15T22:04:13.400Z,66.25
2023-05-15T22:09:17.557Z,66.38
2023-05-15T22:14:21.881Z,65.74
2023-05-15T22:19:32.975Z,66.43
2023-05-15T22:24:37.899Z,65.93
2023-05-15T22:29:41.958Z,65.84
2023-05-15T22:34:45.870Z,65.37
2023-05-15T22:39:49.994Z,64.99
2023-05-15T22:44:56.073Z,64.95
2023-05-15T22:50:00.297Z,64.78
2023-05-15T22:55:04.359Z,64.46
2023-05-15T23:00:10.854Z,64.49
2023-05-15T23:05:15.274Z,64.77
2023-05-15T23:10:19.425Z,64.97
2023-05-15T23:15:23.735Z,64.76
2023-05-15T23:20:28.061Z,64.89
2023-05-15T23:25:32.721Z,64.58
2023-05-15T23:30:36.729Z,64.50
2023-05-15T23:35:41.261Z,64.48
2023-05-15T23:40:45.171Z,65.11
2023-05-15T23:45:49.262Z,64.52
2023-05-15T23:50:53.805Z,64.84
2023-05-15T23:55:57.800Z,64.67
